createdAt,value
2022-12-09T00:00:20.087Z,2.42
2022-12-09T00:02:47.975Z,2.39
2022-12-09T00:05:15.935Z,2.42
2022-12-09T00:07:43.714Z,2.39
2022-12-09T00:10:12.989Z,2.34
2022-12-09T00:12:40.947Z,2.37
2022-12-09T00:15:09.186Z,2.43
2022-12-09T00:17:37.230Z,2.45
2022-12-09T00:20:06.401Z,2.47
2022-12-09T00:22:34.704Z,2.43
2022-12-09T00:25:02.734Z,2.45
2022-12-09T00:27:31.797Z,2.44
2022-12-09T00:29:59.495Z,2.40
2022-12-09T00:32:27.301Z,2.35
2022-12-09T00:34:55.049Z,2.35
2022-12-09T00:37:22.722Z,2.39
2022-12-09T00:39:50.415Z,2.40
2022-12-09T00:42:18.271Z,2.39
2022-12-09T00:44:47.311Z,2.38
2022-12-09T00:47:15.274Z,2.37
2022-12-09T00:49:43.314Z,2.39
2022-12-09T00:52:11.277Z,2.40
2022-12-09T00:54:39.036Z,2.41
2022-12-09T00:57:06.987Z,2.43
2022-12-09T00:59:34.816Z,2.42
2022-12-09T01:02:04.456Z,2.39
2022-12-09T01:04:32.499Z,2.39
2022-12-09T01:07:00.460Z,2.36
2022-12-09T01:09:28.870Z,2.36
2022-12-09T01:11:56.767Z,2.28
2022-12-09T01:14:24.433Z,2.32
2022-12-09T01:16:52.188Z,2.29
2022-12-09T01:19:21.364Z,2.26
2022-12-09T01:21:48.985Z,2.20
2022-12-09T01:24:16.689Z,2.19
2022-12-09T01:26:44.397Z,2.11
2022-12-09T01:29:12.085Z,2.02
2022-12-09T01:31:40.189Z,2.00
2022-12-09T01:34:08.189Z,2.04
2022-12-09T01:36:37.524Z,2.02
2022-12-09T01:39:06.365Z,2.00
2022-12-09T01:41:35.170Z,1.98
2022-12-09T01:44:17.007Z,1.96
2022-12-09T01:46:45.659Z,1.88
2022-12-09T01:49:19.597Z,1.91
2022-12-09T01:51:55.748Z,1.93
2022-12-09T01:54:23.638Z,1.91
2022-12-09T01:56:52.428Z,1.92
2022-12-09T01:59:20.670Z,1.89
2022-12-09T02:01:53.974Z,1.88
2022-12-09T02:04:22.128Z,1.82
2022-12-09T02:06:51.983Z,1.82
2022-12-09T02:09:20.766Z,1.68
2022-12-09T02:12:05.206Z,1.53
2022-12-09T02:14:39.671Z,1.47
2022-12-09T02:17:25.065Z,1.50
2022-12-09T02:20:04.006Z,1.55
2022-12-09T02:22:39.193Z,1.57
2022-12-09T02:25:18.521Z,1.58
2022-12-09T02:27:51.708Z,1.58
2022-12-09T02:30:25.331Z,1.47
2022-12-09T02:33:14.212Z,1.48
2022-12-09T02:35:49.837Z,1.48
2022-12-09T02:38:23.960Z,1.50
2022-12-09T02:40:55.957Z,1.52
2022-12-09T02:43:27.453Z,1.53
2022-12-09T02:45:58.601Z,1.56
2022-12-09T02:48:34.852Z,1.55
2022-12-09T02:51:07.385Z,1.52
2022-12-09T02:53:37.005Z,1.46
2022-12-09T02:56:08.581Z,1.46
2022-12-09T02:58:37.286Z,1.43
2022-12-09T03:01:05.336Z,1.46
2022-12-09T03:03:35.983Z,1.45
2022-12-09T03:06:09.678Z,1.49
2022-12-09T03:08:46.621Z,1.44
2022-12-09T03:11:18.735Z,1.30
2022-12-09T03:13:53.596Z,1.21
2022-12-09T03:16:26.895Z,1.14
2022-12-09T03:19:00.528Z,1.09
2022-12-09T03:21:32.915Z,1.03
2022-12-09T03:24:03.126Z,0.96
2022-12-09T03:26:33.276Z,0.93
2022-12-09T03:29:04.732Z,0.94
2022-12-09T03:31:35.590Z,0.97
2022-12-09T03:34:07.073Z,0.96
2022-12-09T03:36:39.814Z,0.92
2022-12-09T03:39:11.256Z,0.92
2022-12-09T03:41:42.781Z,0.92
2022-12-09T03:44:15.143Z,0.91
2022-12-09T03:46:44.415Z,0.87
2022-12-09T03:49:12.969Z,0.86
2022-12-09T03:51:48.453Z,0.87
2022-12-09T03:54:21.448Z,0.87
2022-12-09T03:56:53.275Z,0.85
2022-12-09T03:59:23.276Z,0.79
2022-12-09T04:01:52.204Z,0.67
2022-12-09T04:04:20.519Z,0.64
2022-12-09T04:06:52.973Z,0.64
2022-12-09T04:09:21.187Z,0.63
2022-12-09T04:11:49.309Z,0.55
2022-12-09T04:14:17.192Z,0.43
2022-12-09T04:16:45.578Z,0.44
2022-12-09T04:19:13.946Z,0.45
2022-12-09T04:21:41.924Z,0.44
2022-12-09T04:24:11.512Z,0.43
2022-12-09T04:26:39.463Z,0.33
2022-12-09T04:29:07.184Z,0.24
2022-12-09T04:31:35.045Z,0.24
2022-12-09T04:34:08.933Z,0.24
2022-12-09T04:36:38.796Z,0.31
2022-12-09T04:39:08.173Z,0.27
2022-12-09T04:41:38.224Z,0.18
2022-12-09T04:44:07.387Z,0.11
2022-12-09T04:46:35.160Z,0.11
2022-12-09T04:49:03.223Z,0.12
2022-12-09T04:51:37.489Z,0.08
2022-12-09T04:54:07.765Z,0.10
2022-12-09T04:56:38.259Z,0.18
2022-12-09T04:59:07.250Z,0.22
2022-12-09T05:01:35.611Z,0.24
2022-12-09T05:04:04.750Z,0.21
2022-12-09T05:06:32.825Z,0.13
2022-12-09T05:09:01.121Z,0.10
2022-12-09T05:11:29.661Z,0.04
2022-12-09T05:13:59.167Z,0.08
2022-12-09T05:16:27.288Z,0.19
2022-12-09T05:18:55.569Z,0.22
2022-12-09T05:21:23.751Z,0.21
2022-12-09T05:23:51.719Z,0.26
2022-12-09T05:26:22.761Z,0.30
2022-12-09T05:28:51.678Z,0.23
2022-12-09T05:31:23.256Z,0.21
2022-12-09T05:33:52.838Z,0.24
2022-12-09T05:36:22.338Z,0.28
2022-12-09T05:38:50.249Z,0.33
2022-12-09T05:41:18.519Z,0.37
2022-12-09T05:43:47.094Z,0.40
2022-12-09T05:46:15.780Z,0.43
2022-12-09T05:48:45.314Z,0.46
2022-12-09T05:51:17.251Z,0.50
2022-12-09T05:53:45.590Z,0.53
2022-12-09T05:56:17.062Z,0.55
2022-12-09T05:58:45.154Z,0.56
2022-12-09T06:01:14.216Z,0.45
2022-12-09T06:03:42.417Z,0.44
2022-12-09T06:06:16.103Z,0.33
2022-12-09T06:08:45.539Z,0.30
2022-12-09T06:11:16.394Z,0.30
2022-12-09T06:13:44.751Z,0.27
2022-12-09T06:16:13.986Z,0.13
2022-12-09T06:23:25.843Z,0.08
2022-12-09T06:25:55.483Z,0.10
2022-12-09T06:28:23.381Z,0.05
2022-12-09T06:30:51.261Z,0.03
2022-12-09T06:33:52.472Z,0.07
2022-12-09T06:36:08.459Z,0.07
2022-12-09T06:38:36.467Z,0.06
2022-12-09T06:41:08.718Z,0.04
2022-12-09T06:43:37.659Z,0.04
2022-12-09T06:46:13.005Z,0.04
2022-12-09T06:48:41.206Z,0.02
2022-12-09T06:51:09.595Z,0.02
2022-12-09T06:53:38.019Z,-0.04
2022-12-09T06:56:12.265Z,0.00
2022-12-09T06:58:42.266Z,0.00
2022-12-09T07:01:13.701Z,-0.08
2022-12-09T07:03:42.940Z,-0.10
2022-12-09T07:06:22.019Z,-0.09
2022-12-09T07:08:50.147Z,-0.04
2022-12-09T07:11:20.136Z,-0.01
2022-12-09T07:13:49.267Z,-0.01
2022-12-09T07:16:17.139Z,-0.06
2022-12-09T07:18:45.506Z,0.00
2022-12-09T07:21:15.064Z,0.07
2022-12-09T07:23:42.994Z,0.10
2022-12-09T07:26:11.325Z,0.17
2022-12-09T07:28:42.665Z,0.11
2022-12-09T07:31:19.581Z,0.09
2022-12-09T07:33:49.105Z,0.09
2022-12-09T07:36:20.984Z,0.15
2022-12-09T07:38:50.249Z,0.19
2022-12-09T07:41:19.287Z,0.24
2022-12-09T07:43:48.952Z,0.24
2022-12-09T07:46:19.292Z,0.37
2022-12-09T07:48:48.467Z,0.39
2022-12-09T07:51:17.839Z,0.42
2022-12-09T07:53:46.170Z,0.35
2022-12-09T07:56:16.348Z,0.34
2022-12-09T07:58:45.241Z,0.33
2022-12-09T08:01:16.740Z,0.38
2022-12-09T08:03:46.352Z,0.45
2022-12-09T08:06:16.300Z,0.56
2022-12-09T08:08:44.484Z,0.45
2022-12-09T08:11:14.813Z,0.68
2022-12-09T08:13:43.177Z,0.58
2022-12-09T08:16:13.447Z,0.51
2022-12-09T08:18:43.841Z,0.53
2022-12-09T08:21:14.011Z,0.57
2022-12-09T08:23:42.612Z,0.63
2022-12-09T08:26:11.279Z,0.63
2022-12-09T08:28:39.453Z,0.65
2022-12-09T08:31:09.100Z,0.71
2022-12-09T08:33:37.369Z,0.69
2022-12-09T08:36:12.320Z,0.75
2022-12-09T08:38:40.704Z,0.75
2022-12-09T08:41:13.327Z,0.77
2022-12-09T08:43:42.147Z,0.76
2022-12-09T08:46:10.390Z,0.78
2022-12-09T08:48:39.117Z,0.78
2022-12-09T08:51:10.591Z,0.82
2022-12-09T08:53:38.543Z,0.77
2022-12-09T08:56:12.014Z,0.75
2022-12-09T08:58:41.097Z,0.79
2022-12-09T09:01:15.166Z,0.79
2022-12-09T09:03:43.947Z,0.84
2022-12-09T09:06:14.357Z,0.84
2022-12-09T09:08:42.687Z,0.84
2022-12-09T09:11:13.460Z,0.87
2022-12-09T09:13:43.033Z,0.94
2022-12-09T09:16:12.553Z,1.01
2022-12-09T09:18:41.255Z,0.94
2022-12-09T09:21:11.059Z,0.97
2022-12-09T09:23:41.401Z,1.03
2022-12-09T09:26:11.813Z,1.09
2022-12-09T09:28:39.945Z,1.08
2022-12-09T09:31:10.284Z,1.08
2022-12-09T09:33:39.060Z,1.15
2022-12-09T09:36:10.906Z,1.13
2022-12-09T09:38:40.994Z,1.18
2022-12-09T09:41:21.769Z,1.21
2022-12-09T09:43:50.029Z,1.23
2022-12-09T09:46:21.801Z,1.32
2022-12-09T09:48:52.007Z,1.33
2022-12-09T09:51:22.802Z,1.30
2022-12-09T09:53:53.417Z,1.39
2022-12-09T09:56:27.728Z,1.48
2022-12-09T09:59:03.679Z,1.49
2022-12-09T10:01:34.918Z,1.54
2022-12-09T10:04:13.136Z,1.75
2022-12-09T10:06:48.980Z,1.72
2022-12-09T10:09:23.868Z,1.75
2022-12-09T10:11:59.537Z,1.88
2022-12-09T10:14:44.695Z,1.83
2022-12-09T10:17:25.254Z,1.85
2022-12-09T10:19:57.640Z,1.86
2022-12-09T10:22:30.644Z,1.92
2022-12-09T10:25:04.442Z,1.92
2022-12-09T10:27:38.329Z,2.10
2022-12-09T10:30:09.256Z,2.11
2022-12-09T10:32:39.316Z,2.18
2022-12-09T10:35:16.554Z,2.31
2022-12-09T10:37:44.697Z,2.42
2022-12-09T10:40:23.199Z,2.46
2022-12-09T10:43:10.424Z,2.56
2022-12-09T10:46:16.699Z,2.69
2022-12-09T10:48:38.783Z,2.93
2022-12-09T10:51:12.254Z,3.14
2022-12-09T10:53:48.733Z,2.99
2022-12-09T10:56:24.383Z,3.00
2022-12-09T10:59:10.485Z,3.24
2022-12-09T11:01:50.635Z,3.49
2022-12-09T11:04:27.099Z,3.52
2022-12-09T11:06:59.727Z,3.45
2022-12-09T11:09:29.922Z,3.40
2022-12-09T11:12:01.087Z,3.15
2022-12-09T11:14:34.939Z,3.13
2022-12-09T11:17:14.988Z,3.44
2022-12-09T11:19:44.679Z,3.31
2022-12-09T11:22:23.321Z,3.38
2022-12-09T11:24:54.631Z,3.49
2022-12-09T11:27:31.116Z,3.23
2022-12-09T11:30:15.848Z,3.49
2022-12-09T11:32:57.731Z,3.41
2022-12-09T11:35:32.275Z,3.47
2022-12-09T11:38:04.739Z,3.89
2022-12-09T11:40:33.692Z,3.63
2022-12-09T11:43:03.645Z,3.55
2022-12-09T11:45:37.389Z,3.70
2022-12-09T11:48:31.994Z,3.80
2022-12-09T11:51:02.952Z,3.56
2022-12-09T11:53:32.581Z,3.48
2022-12-09T11:56:05.836Z,3.37
2022-12-09T11:58:43.297Z,3.47
2022-12-09T12:01:16.951Z,3.53
2022-12-09T12:03:48.870Z,3.55
2022-12-09T12:09:26.066Z,3.02
2022-12-09T12:12:04.181Z,3.18
2022-12-09T12:14:36.721Z,3.16
2022-12-09T12:17:16.173Z,3.30
2022-12-09T12:19:46.379Z,2.97
2022-12-09T12:22:27.676Z,3.15
2022-12-09T12:25:28.037Z,3.01
2022-12-09T12:28:22.466Z,3.03
2022-12-09T12:30:59.437Z,3.03
2022-12-09T12:36:40.461Z,3.06
2022-12-09T12:39:15.469Z,3.07
2022-12-09T12:41:51.769Z,3.16
2022-12-09T12:45:04.076Z,3.21
2022-12-09T12:47:41.013Z,3.20
2022-12-09T12:50:35.754Z,3.08
2022-12-09T12:53:15.991Z,3.01
2022-12-09T12:55:50.209Z,3.11
2022-12-09T12:58:30.375Z,3.26
2022-12-09T13:01:08.409Z,3.34
2022-12-09T13:03:48.256Z,3.34
2022-12-09T13:06:21.208Z,3.21
2022-12-09T13:08:58.321Z,3.61
2022-12-09T13:11:37.460Z,3.42
2022-12-09T13:14:11.624Z,3.27
2022-12-09T13:16:42.335Z,3.24
2022-12-09T13:19:17.663Z,3.12
2022-12-09T13:21:46.488Z,3.15
2022-12-09T13:24:26.791Z,3.15
2022-12-09T13:27:01.004Z,3.22
2022-12-09T13:29:37.958Z,3.12
2022-12-09T13:32:18.297Z,3.14
2022-12-09T13:34:51.450Z,3.18
2022-12-09T13:37:55.643Z,3.26
2022-12-09T13:40:41.327Z,3.18
2022-12-09T13:43:26.203Z,3.16
2022-12-09T13:45:59.155Z,3.12
2022-12-09T13:48:44.658Z,3.13
2022-12-09T13:51:14.774Z,3.26
2022-12-09T13:53:49.253Z,3.19
2022-12-09T13:56:35.829Z,3.16
2022-12-09T13:59:30.917Z,3.18
2022-12-09T14:02:02.255Z,3.42
2022-12-09T14:04:33.320Z,3.20
2022-12-09T14:07:10.833Z,3.29
2022-12-09T14:09:47.557Z,3.07
2022-12-09T14:12:35.884Z,3.23
2022-12-09T14:15:39.612Z,3.04
2022-12-09T14:18:30.174Z,3.00
2022-12-09T14:21:23.963Z,2.95
2022-12-09T14:24:32.864Z,3.18
2022-12-09T14:27:25.220Z,3.09
2022-12-09T14:29:56.568Z,3.09
2022-12-09T14:32:27.203Z,2.95
2022-12-09T14:35:17.018Z,2.94
2022-12-09T14:38:00.521Z,2.90
2022-12-09T14:40:40.521Z,2.95
2022-12-09T14:43:36.709Z,2.99
2022-12-09T14:46:06.814Z,2.91
2022-12-09T14:48:37.282Z,3.01
2022-12-09T14:51:15.849Z,2.95
2022-12-09T14:53:44.440Z,2.80
2022-12-09T14:56:18.933Z,2.95
2022-12-09T14:58:51.874Z,3.34
2022-12-09T15:01:19.601Z,3.01
2022-12-09T15:03:55.680Z,2.94
2022-12-09T15:06:26.569Z,3.08
2022-12-09T15:08:57.533Z,2.82
2022-12-09T15:11:29.421Z,2.83
2022-12-09T15:14:19.399Z,2.72
2022-12-09T15:16:50.506Z,2.59
2022-12-09T15:19:43.769Z,2.69
2022-12-09T15:22:17.134Z,2.64
2022-12-09T15:24:50.541Z,2.72
2022-12-09T15:27:23.388Z,2.91
2022-12-09T15:29:51.946Z,2.77
2022-12-09T15:32:22.854Z,2.68
2022-12-09T15:34:50.800Z,2.83
2022-12-09T15:37:20.845Z,2.87
2022-12-09T15:39:53.310Z,2.80
2022-12-09T15:42:27.291Z,2.62
2022-12-09T15:45:02.185Z,2.55
2022-12-09T15:47:35.672Z,2.76
2022-12-09T15:50:15.646Z,2.73
2022-12-09T15:52:49.889Z,2.75
2022-12-09T15:55:21.561Z,2.65
2022-12-09T15:57:54.528Z,2.76
2022-12-09T16:00:22.536Z,2.66
2022-12-09T16:02:51.448Z,2.70
2022-12-09T16:05:23.899Z,2.71
2022-12-09T16:07:57.883Z,2.80
2022-12-09T16:10:27.629Z,2.68
2022-12-09T16:13:08.382Z,2.76
2022-12-09T16:15:50.019Z,2.80
2022-12-09T16:18:22.612Z,2.80
2022-12-09T16:21:03.723Z,2.69
2022-12-09T16:23:31.783Z,2.70
2022-12-09T16:26:07.080Z,2.63
2022-12-09T16:28:37.669Z,2.66
2022-12-09T16:31:18.671Z,2.66
2022-12-09T16:33:49.755Z,2.74
2022-12-09T16:36:20.819Z,2.71
2022-12-09T16:39:32.275Z,2.63
2022-12-09T16:42:02.968Z,2.70
2022-12-09T16:44:35.154Z,2.61
2022-12-09T16:47:14.821Z,2.68
2022-12-09T16:49:45.379Z,2.77
2022-12-09T16:52:14.519Z,2.74
2022-12-09T16:54:45.034Z,2.59
2022-12-09T16:57:14.221Z,2.68
2022-12-09T16:59:44.511Z,2.56
2022-12-09T17:02:19.596Z,2.52
2022-12-09T17:04:48.402Z,2.54
2022-12-09T17:07:16.193Z,2.50
2022-12-09T17:09:44.332Z,2.57
2022-12-09T17:12:12.296Z,2.49
2022-12-09T17:14:40.092Z,2.49
2022-12-09T17:17:09.413Z,2.54
2022-12-09T17:19:38.449Z,2.83
2022-12-09T17:22:07.088Z,2.70
2022-12-09T17:24:35.034Z,2.71
2022-12-09T17:27:02.794Z,2.64
2022-12-09T17:29:31.044Z,2.62
2022-12-09T17:31:58.867Z,2.52
2022-12-09T17:34:27.981Z,2.63
2022-12-09T17:36:56.049Z,2.58
2022-12-09T17:39:24.751Z,2.43
2022-12-09T17:41:52.723Z,2.43
2022-12-09T17:44:21.550Z,2.55
2022-12-09T17:46:50.576Z,2.47
2022-12-09T17:49:18.651Z,2.65
2022-12-09T17:51:48.485Z,2.44
2022-12-09T17:54:16.192Z,2.33
2022-12-09T17:56:46.509Z,2.40
2022-12-09T17:59:16.827Z,2.60
2022-12-09T18:01:46.131Z,2.43
2022-12-09T18:04:15.628Z,2.41
2022-12-09T18:06:45.338Z,2.29
2022-12-09T18:09:17.941Z,2.34
2022-12-09T18:11:46.520Z,2.27
2022-12-09T18:14:14.748Z,2.29
2022-12-09T18:16:42.959Z,2.44
2022-12-09T18:19:15.260Z,2.40
2022-12-09T18:21:43.401Z,2.31
2022-12-09T18:24:11.207Z,2.22
2022-12-09T18:26:42.143Z,2.36
2022-12-09T18:29:10.819Z,2.05
2022-12-09T18:31:39.593Z,2.09
2022-12-09T18:34:07.745Z,2.05
2022-12-09T18:36:35.497Z,2.09
2022-12-09T18:39:03.984Z,2.01
2022-12-09T18:41:33.460Z,2.00
2022-12-09T18:44:04.322Z,2.25
2022-12-09T18:46:33.834Z,2.25
2022-12-09T18:49:05.183Z,2.22
2022-12-09T18:51:33.753Z,2.12
2022-12-09T18:54:02.847Z,2.24
2022-12-09T18:56:31.518Z,2.37
2022-12-09T18:59:08.623Z,2.09
2022-12-09T19:01:41.366Z,1.92
2022-12-09T19:04:13.880Z,1.88
2022-12-09T19:06:43.126Z,1.93
2022-12-09T19:09:14.226Z,1.82
2022-12-09T19:11:43.783Z,1.86
2022-12-09T19:14:11.970Z,2.02
2022-12-09T19:16:42.276Z,1.82
2022-12-09T19:19:13.148Z,1.92
2022-12-09T19:21:41.398Z,1.88
2022-12-09T19:24:13.390Z,1.87
2022-12-09T19:26:42.616Z,1.82
2022-12-09T19:29:11.585Z,1.96
2022-12-09T19:31:42.554Z,1.81
2022-12-09T19:34:14.360Z,1.89
2022-12-09T19:36:42.751Z,1.85
2022-12-09T19:39:12.264Z,1.85
2022-12-09T19:41:40.942Z,1.85
2022-12-09T19:44:10.561Z,1.76
2022-12-09T19:46:38.812Z,1.79
2022-12-09T19:49:08.367Z,1.84
2022-12-09T19:51:36.246Z,1.95
2022-12-09T19:54:04.328Z,1.82
2022-12-09T19:56:32.287Z,1.74
2022-12-09T19:59:00.539Z,1.79
2022-12-09T20:01:30.393Z,1.78
2022-12-09T20:19:14.571Z,1.84
2022-12-09T20:21:42.267Z,1.97
2022-12-09T20:24:10.731Z,1.77
2022-12-09T20:26:39.676Z,1.69
2022-12-09T20:29:08.995Z,1.79
2022-12-09T20:31:39.256Z,1.66
2022-12-09T20:34:09.616Z,1.78
2022-12-09T20:36:41.863Z,1.77
2022-12-09T20:39:14.784Z,1.77
2022-12-09T20:41:44.575Z,1.76
2022-12-09T20:44:13.607Z,1.73
2022-12-09T20:46:45.415Z,1.74
2022-12-09T20:49:13.165Z,1.69
2022-12-09T20:51:44.060Z,1.71
2022-12-09T20:54:12.713Z,1.76
2022-12-09T20:56:40.577Z,1.65
2022-12-09T20:59:09.945Z,1.61
2022-12-09T21:01:39.097Z,1.63
2022-12-09T21:04:08.456Z,1.62
2022-12-09T21:06:39.257Z,1.63
2022-12-09T21:09:10.802Z,1.65
2022-12-09T21:11:38.918Z,1.74
2022-12-09T21:14:07.738Z,1.68
2022-12-09T21:16:38.723Z,1.80
2022-12-09T21:19:10.158Z,1.64
2022-12-09T21:21:40.192Z,1.67
2022-12-09T21:24:11.961Z,1.68
2022-12-09T21:26:39.816Z,1.56
2022-12-09T21:29:08.336Z,1.77
2022-12-09T21:31:37.837Z,1.64
2022-12-09T21:34:07.268Z,1.72
2022-12-09T21:36:36.952Z,1.64
2022-12-09T21:39:05.949Z,1.67
2022-12-09T21:41:36.787Z,1.59
2022-12-09T21:44:05.970Z,1.61
2022-12-09T21:46:35.918Z,1.50
2022-12-09T21:49:06.386Z,1.72
2022-12-09T21:51:35.809Z,1.60
2022-12-09T21:54:05.203Z,1.62
2022-12-09T21:56:36.825Z,1.53
2022-12-09T21:59:06.870Z,1.77
2022-12-09T22:01:36.531Z,1.71
2022-12-09T22:04:06.784Z,1.58
2022-12-09T22:06:34.922Z,1.59
2022-12-09T22:09:04.570Z,1.66
2022-12-09T22:11:36.736Z,1.55
2022-12-09T22:14:07.832Z,1.51
2022-12-09T22:16:38.771Z,1.53
2022-12-09T22:19:09.065Z,1.49
2022-12-09T22:21:37.449Z,1.53
2022-12-09T22:24:07.402Z,1.48
2022-12-09T22:26:35.267Z,1.71
2022-12-09T22:29:06.984Z,1.54
2022-12-09T22:31:37.531Z,1.48
2022-12-09T22:34:08.392Z,1.54
2022-12-09T22:36:37.002Z,1.46
2022-12-09T22:39:06.630Z,1.60
2022-12-09T22:41:34.996Z,1.54
2022-12-09T22:44:02.837Z,1.56
2022-12-09T22:46:34.112Z,1.48
2022-12-09T22:49:04.768Z,1.37
2022-12-09T22:51:34.904Z,1.35
2022-12-09T22:54:05.000Z,1.37
2022-12-09T22:56:33.467Z,1.33
2022-12-09T22:59:01.685Z,1.41
2022-12-09T23:01:34.644Z,1.50
2022-12-09T23:04:03.083Z,1.38
2022-12-09T23:06:31.712Z,1.43
2022-12-09T23:08:59.372Z,1.41
2022-12-09T23:11:28.732Z,1.38
2022-12-09T23:13:56.800Z,1.40
2022-12-09T23:16:26.181Z,1.35
2022-12-09T23:18:56.992Z,1.31
2022-12-09T23:21:26.865Z,1.39
2022-12-09T23:23:55.965Z,1.38
2022-12-09T23:26:27.141Z,1.33
2022-12-09T23:28:56.952Z,1.41
2022-12-09T23:31:28.261Z,1.45
2022-12-09T23:33:58.543Z,1.31
2022-12-09T23:36:28.630Z,1.35
2022-12-09T23:38:56.401Z,1.41
2022-12-09T23:41:26.052Z,1.39
2022-12-09T23:43:54.308Z,1.49
2022-12-09T23:46:24.010Z,1.46
2022-12-09T23:48:54.129Z,1.41
